Veersedijk — PBCX — position and weather

sailwx.info

Track history (hours):
 
Tides and Currents Weather Stations Pressure Air Temp Water Temp Dewpoint Dewpoint Depression Visibility Wind Speed Wind Dir Waves Ship Positions

Veersedijk

Last reported at 2014-Sep-17 03:33 UTC. Time now 2014-Sep-19 13:53 UTC.
Position N 35°58' W 005°27'.

Length 132 m; draft 7.5 m.

Type: Ship (hazmat cat A). MMSI: 244268000.

Date/timePositionNaut miles runAvg speedWind from/ knotsBaromVisibWave heightAir tempDewpointWater temp
2014-Sep-17 03:33N 35°58' W 005°27'  
2014-Sep-13 14:33N 36°27' W 002°21'7911.2
2014-Sep-13 07:31N 37°15' W 001°02'1211.8
2014-Sep-13 06:32N 37°22' W 000°50'1111.3
2014-Sep-13 05:33N 37°30' W 000°41'1211.6
2014-Sep-13 04:33N 37°38' W 000°31'1211.9
2014-Sep-13 03:32N 37°48' W 000°22'1212.0
2014-Sep-13 02:31N 37°58' W 000°13'1212.0
2014-Sep-13 01:29N 38°09' W 000°05'1112.1
2014-Sep-13 00:33N 38°18' E 000°03'1311.9
2014-Sep-12 23:30N 38°29' E 000°11'1111.9
2014-Sep-12 22:33N 38°38' E 000°19'10 9.6
2014-Sep-12 21:32N 38°48' E 000°19'1111.5
2014-Sep-12 20:34N 38°57' E 000°10'3411.1
2014-Sep-12 17:27N 39°24' W 000°17'2 1.0
2014-Sep-12 15:17N 39°26' W 000°19'0 0.0
2014-Sep-12 14:11N 39°26' W 000°19'0 0.0
2014-Sep-12 13:29N 39°26' W 000°19'0 0.0
2014-Sep-12 12:28N 39°26' W 000°19'0 0.0
2014-Sep-12 11:28N 39°26' W 000°19'0 0.0
2014-Sep-12 10:31N 39°26' W 000°19'0 0.0
2014-Sep-12 09:31N 39°26' W 000°19'0 0.0
2014-Sep-12 08:31N 39°26' W 000°19'0 0.0
2014-Sep-12 07:31N 39°26' W 000°19'0 0.0
2014-Sep-12 06:31N 39°26' W 000°19'0 0.0
2014-Sep-12 05:31N 39°26' W 000°19'0 0.0
2014-Sep-12 04:31N 39°26' W 000°19'0 0.0
2014-Sep-12 03:31N 39°26' W 000°19'0 0.0
2014-Sep-12 02:31N 39°26' W 000°19'0 0.0
2014-Sep-12 01:31N 39°26' W 000°19'0 0.0
2014-Sep-12 00:33N 39°26' W 000°19'1 1.2
2014-Sep-11 23:32N 39°27' W 000°19'0 0.0
2014-Sep-11 22:32N 39°27' W 000°19'0 0.0
2014-Sep-11 21:32N 39°27' W 000°19'0 0.0
2014-Sep-11 20:32N 39°27' W 000°19'0 0.0
2014-Sep-11 19:32N 39°27' W 000°19'0 0.0
2014-Sep-11 18:32N 39°27' W 000°19'0 0.0
2014-Sep-11 17:32N 39°27' W 000°19'0 0.0
2014-Sep-11 16:32N 39°27' W 000°19'0 0.0
2014-Sep-11 15:32N 39°27' W 000°19'0 0.0
2014-Sep-11 14:32N 39°27' W 000°19'0 0.0
2014-Sep-11 13:32N 39°27' W 000°19'0 0.0
2014-Sep-11 12:32N 39°27' W 000°19'0 0.0
2014-Sep-11 11:32N 39°27' W 000°19'1 0.7
2014-Sep-11 10:33N 39°26' W 000°19'9 9.1
2014-Sep-11 09:33N 39°32' W 000°09'1211.5
2014-Sep-11 08:33N 39°41' E 000°00'1211.9
2014-Sep-11 07:33N 39°50' E 000°10'1311.9
2014-Sep-11 06:28N 39°60' E 000°21'1112.1
2014-Sep-11 05:33N 40°08' E 000°30'1111.4
2014-Sep-11 04:33N 40°17' E 000°39'1712.1
2014-Sep-11 03:07N 40°30' E 000°54'711.0
2014-Sep-11 02:32N 40°35' E 000°60'1412.3
2014-Sep-11 01:23N 40°44' E 001°14'1011.8
2014-Sep-11 00:33N 40°50' E 001°24'1412.4
2014-Sep-10 23:24N 40°59' E 001°39'1012.4
2014-Sep-10 22:33N 41°05' E 001°50'1111.0
2014-Sep-10 21:33N 41°12' E 002°02'1010.2
2014-Sep-10 20:33N 41°20' E 002°10'2 0.8
2014-Sep-10 18:22N 41°21' E 002°10'0 0.0
2014-Sep-10 17:22N 41°21' E 002°10'0 0.0
2014-Sep-10 16:28N 41°21' E 002°10'0 0.0
2014-Sep-10 14:22N 41°21' E 002°10'0 0.0
2014-Sep-10 13:15N 41°21' E 002°10'0 0.0
2014-Sep-10 12:24N 41°21' E 002°10'5 5.6
2014-Sep-10 11:30N 41°16' E 002°11'1314.3
2014-Sep-10 10:33N 41°11' E 001°55'1514.7
2014-Sep-10 09:33N 41°07' E 001°36'1714.3
2014-Sep-10 08:23N 41°05' E 001°14'7 0.3
2014-Sep-09 08:18N 40°58' E 001°10'8 9.4
2014-Sep-09 07:27N 40°50' E 001°06'8 9.2
2014-Sep-09 06:33N 40°42' E 001°03'9 9.3
2014-Sep-09 05:33N 40°34' E 000°58'1211.7
2014-Sep-09 04:32N 40°25' E 000°48'1111.6
2014-Sep-09 03:33N 40°16' E 000°38'1211.7
2014-Sep-09 02:33N 40°07' E 000°29'4611.6
2014-Sep-08 22:33N 39°31' W 000°10'8 8.4
2014-Sep-08 21:33N 39°27' W 000°19'0 0.1
2014-Sep-08 20:33N 39°27' W 000°19'0 0.0
2014-Sep-08 19:32N 39°27' W 000°19'0 0.0
2014-Sep-08 18:33N 39°27' W 000°19'0 0.0
2014-Sep-08 17:33N 39°27' W 000°19'0 0.0
2014-Sep-08 16:33N 39°27' W 000°19'0 0.0
2014-Sep-08 15:33N 39°27' W 000°19'0 0.0
2014-Sep-08 14:33N 39°27' W 000°19'0 0.0
2014-Sep-08 13:32N 39°27' W 000°19'0 0.0
2014-Sep-08 12:33N 39°27' W 000°19'0 0.0
2014-Sep-08 11:33N 39°27' W 000°19'0 0.0
2014-Sep-08 10:33N 39°27' W 000°19'0 0.0
2014-Sep-08 09:33N 39°27' W 000°19'0 0.0
2014-Sep-08 08:33N 39°27' W 000°19'0 0.1
2014-Sep-08 07:33N 39°27' W 000°19'1 1.2
2014-Sep-08 06:33N 39°26' W 000°19'0 0.0
2014-Sep-08 05:33N 39°26' W 000°19'0 0.0
2014-Sep-08 04:33N 39°26' W 000°19'0 0.0
2014-Sep-08 03:33N 39°26' W 000°19'0 0.0
2014-Sep-08 02:33N 39°26' W 000°19'0 0.0
2014-Sep-08 01:33N 39°26' W 000°19'0 0.0
2014-Sep-08 00:32N 39°26' W 000°19'0 0.0
2014-Sep-07 23:33N 39°26' W 000°19'2 1.7
2014-Sep-07 22:34N 39°25' W 000°17'1 0.6
2014-Sep-07 21:03N 39°24' W 000°17'0 0.0
2014-Sep-07 13:06N 39°24' W 000°17'0 0.0
2014-Sep-07 10:24N 39°24' W 000°17'0 0.0
2014-Sep-07 09:18N 39°24' W 000°17'0 0.0
2014-Sep-07 05:12N 39°24' W 000°17'0 0.0
2014-Sep-07 04:18N 39°24' W 000°17'  
Track history (hours):
 
Tides and Currents Weather Stations Pressure Air Temp Water Temp Dewpoint Dewpoint Depression Visibility Wind Speed Wind Dir Waves Ship Positions

Veersedijk

Last reported at 2014-Sep-17 03:33 UTC. Time now 2014-Sep-19 13:53 UTC.
Position N 35°58' W 005°27'.

Length 132 m; draft 7.5 m.

Type: Ship (hazmat cat A). MMSI: 244268000.

Date/timePositionNaut miles runAvg speedWind from/ knotsBaromVisibWave heightAir tempDewpointWater temp
2014-Sep-17 03:33N 35°58' W 005°27'  
2014-Sep-13 14:33N 36°27' W 002°21'7911.2
2014-Sep-13 07:31N 37°15' W 001°02'1211.8
2014-Sep-13 06:32N 37°22' W 000°50'1111.3
2014-Sep-13 05:33N 37°30' W 000°41'1211.6
2014-Sep-13 04:33N 37°38' W 000°31'1211.9
2014-Sep-13 03:32N 37°48' W 000°22'1212.0
2014-Sep-13 02:31N 37°58' W 000°13'1212.0
2014-Sep-13 01:29N 38°09' W 000°05'1112.1
2014-Sep-13 00:33N 38°18' E 000°03'1311.9
2014-Sep-12 23:30N 38°29' E 000°11'1111.9
2014-Sep-12 22:33N 38°38' E 000°19'10 9.6
2014-Sep-12 21:32N 38°48' E 000°19'1111.5
2014-Sep-12 20:34N 38°57' E 000°10'3411.1
2014-Sep-12 17:27N 39°24' W 000°17'2 1.0
2014-Sep-12 15:17N 39°26' W 000°19'0 0.0
2014-Sep-12 14:11N 39°26' W 000°19'0 0.0
2014-Sep-12 13:29N 39°26' W 000°19'0 0.0
2014-Sep-12 12:28N 39°26' W 000°19'0 0.0
2014-Sep-12 11:28N 39°26' W 000°19'0 0.0
2014-Sep-12 10:31N 39°26' W 000°19'0 0.0
2014-Sep-12 09:31N 39°26' W 000°19'0 0.0
2014-Sep-12 08:31N 39°26' W 000°19'0 0.0
2014-Sep-12 07:31N 39°26' W 000°19'0 0.0
2014-Sep-12 06:31N 39°26' W 000°19'0 0.0
2014-Sep-12 05:31N 39°26' W 000°19'0 0.0
2014-Sep-12 04:31N 39°26' W 000°19'0 0.0
2014-Sep-12 03:31N 39°26' W 000°19'0 0.0
2014-Sep-12 02:31N 39°26' W 000°19'0 0.0
2014-Sep-12 01:31N 39°26' W 000°19'0 0.0
2014-Sep-12 00:33N 39°26' W 000°19'1 1.2
2014-Sep-11 23:32N 39°27' W 000°19'0 0.0
2014-Sep-11 22:32N 39°27' W 000°19'0 0.0
2014-Sep-11 21:32N 39°27' W 000°19'0 0.0
2014-Sep-11 20:32N 39°27' W 000°19'0 0.0
2014-Sep-11 19:32N 39°27' W 000°19'0 0.0
2014-Sep-11 18:32N 39°27' W 000°19'0 0.0
2014-Sep-11 17:32N 39°27' W 000°19'0 0.0
2014-Sep-11 16:32N 39°27' W 000°19'0 0.0
2014-Sep-11 15:32N 39°27' W 000°19'0 0.0
2014-Sep-11 14:32N 39°27' W 000°19'0 0.0
2014-Sep-11 13:32N 39°27' W 000°19'0 0.0
2014-Sep-11 12:32N 39°27' W 000°19'0 0.0
2014-Sep-11 11:32N 39°27' W 000°19'1 0.7
2014-Sep-11 10:33N 39°26' W 000°19'9 9.1
2014-Sep-11 09:33N 39°32' W 000°09'1211.5
2014-Sep-11 08:33N 39°41' E 000°00'1211.9
2014-Sep-11 07:33N 39°50' E 000°10'1311.9
2014-Sep-11 06:28N 39°60' E 000°21'1112.1
2014-Sep-11 05:33N 40°08' E 000°30'1111.4
2014-Sep-11 04:33N 40°17' E 000°39'1712.1
2014-Sep-11 03:07N 40°30' E 000°54'711.0
2014-Sep-11 02:32N 40°35' E 000°60'1412.3
2014-Sep-11 01:23N 40°44' E 001°14'1011.8
2014-Sep-11 00:33N 40°50' E 001°24'1412.4
2014-Sep-10 23:24N 40°59' E 001°39'1012.4
2014-Sep-10 22:33N 41°05' E 001°50'1111.0
2014-Sep-10 21:33N 41°12' E 002°02'1010.2
2014-Sep-10 20:33N 41°20' E 002°10'2 0.8
2014-Sep-10 18:22N 41°21' E 002°10'0 0.0
2014-Sep-10 17:22N 41°21' E 002°10'0 0.0
2014-Sep-10 16:28N 41°21' E 002°10'0 0.0
2014-Sep-10 14:22N 41°21' E 002°10'0 0.0
2014-Sep-10 13:15N 41°21' E 002°10'0 0.0
2014-Sep-10 12:24N 41°21' E 002°10'5 5.6
2014-Sep-10 11:30N 41°16' E 002°11'1314.3
2014-Sep-10 10:33N 41°11' E 001°55'1514.7
2014-Sep-10 09:33N 41°07' E 001°36'1714.3
2014-Sep-10 08:23N 41°05' E 001°14'7 0.3
2014-Sep-09 08:18N 40°58' E 001°10'8 9.4
2014-Sep-09 07:27N 40°50' E 001°06'8 9.2
2014-Sep-09 06:33N 40°42' E 001°03'9 9.3
2014-Sep-09 05:33N 40°34' E 000°58'1211.7
2014-Sep-09 04:32N 40°25' E 000°48'1111.6
2014-Sep-09 03:33N 40°16' E 000°38'1211.7
2014-Sep-09 02:33N 40°07' E 000°29'4611.6
2014-Sep-08 22:33N 39°31' W 000°10'8 8.4
2014-Sep-08 21:33N 39°27' W 000°19'0 0.1
2014-Sep-08 20:33N 39°27' W 000°19'0 0.0
2014-Sep-08 19:32N 39°27' W 000°19'0 0.0
2014-Sep-08 18:33N 39°27' W 000°19'0 0.0
2014-Sep-08 17:33N 39°27' W 000°19'0 0.0
2014-Sep-08 16:33N 39°27' W 000°19'0 0.0
2014-Sep-08 15:33N 39°27' W 000°19'0 0.0
2014-Sep-08 14:33N 39°27' W 000°19'0 0.0
2014-Sep-08 13:32N 39°27' W 000°19'0 0.0
2014-Sep-08 12:33N 39°27' W 000°19'0 0.0
2014-Sep-08 11:33N 39°27' W 000°19'0 0.0
2014-Sep-08 10:33N 39°27' W 000°19'0 0.0
2014-Sep-08 09:33N 39°27' W 000°19'0 0.0
2014-Sep-08 08:33N 39°27' W 000°19'0 0.1
2014-Sep-08 07:33N 39°27' W 000°19'1 1.2
2014-Sep-08 06:33N 39°26' W 000°19'0 0.0
2014-Sep-08 05:33N 39°26' W 000°19'0 0.0
2014-Sep-08 04:33N 39°26' W 000°19'0 0.0
2014-Sep-08 03:33N 39°26' W 000°19'0 0.0
2014-Sep-08 02:33N 39°26' W 000°19'0 0.0
2014-Sep-08 01:33N 39°26' W 000°19'0 0.0
2014-Sep-08 00:32N 39°26' W 000°19'0 0.0
2014-Sep-07 23:33N 39°26' W 000°19'2 1.7
2014-Sep-07 22:34N 39°25' W 000°17'1 0.6
2014-Sep-07 21:03N 39°24' W 000°17'0 0.0
2014-Sep-07 13:06N 39°24' W 000°17'0 0.0
2014-Sep-07 10:24N 39°24' W 000°17'0 0.0
2014-Sep-07 09:18N 39°24' W 000°17'0 0.0
2014-Sep-07 05:12N 39°24' W 000°17'0 0.0
2014-Sep-07 04:18N 39°24' W 000°17'  

Dump ship's entire track history